createdAt,value
2022-11-28T00:00:58.544Z,17.90
2022-11-28T00:03:00.708Z,19.15
2022-11-28T00:05:02.592Z,19.23
2022-11-28T00:07:04.483Z,19.67
2022-11-28T00:09:07.389Z,17.52
2022-11-28T00:11:12.071Z,18.45
2022-11-28T00:13:14.016Z,21.35
2022-11-28T00:15:15.856Z,17.58
2022-11-28T00:17:17.574Z,17.98
2022-11-28T00:19:19.353Z,17.97
2022-11-28T00:21:21.824Z,18.43
2022-11-28T00:23:23.607Z,18.05
2022-11-28T00:25:25.474Z,18.38
2022-11-28T00:27:27.218Z,19.33
2022-11-28T00:29:29.018Z,20.57
2022-11-28T00:31:33.744Z,19.63
2022-11-28T00:33:35.521Z,20.58
2022-11-28T00:35:37.262Z,18.90
2022-11-28T00:37:38.994Z,18.73
2022-11-28T00:39:40.709Z,18.60
2022-11-28T00:41:43.266Z,17.80
2022-11-28T00:45:47.339Z,17.47
2022-11-28T00:47:49.208Z,17.92
2022-11-28T00:49:50.938Z,19.00
2022-11-28T00:51:52.736Z,18.77
2022-11-28T00:53:55.748Z,18.65
2022-11-28T00:55:57.444Z,19.40
2022-11-28T00:57:59.162Z,18.63
2022-11-28T01:00:00.909Z,19.37
2022-11-28T01:02:02.764Z,18.33
2022-11-28T01:04:07.360Z,20.42
2022-11-28T01:06:10.164Z,19.73
2022-11-28T01:08:11.940Z,21.77
2022-11-28T01:10:13.864Z,19.92
2022-11-28T01:12:15.792Z,20.48
2022-11-28T01:14:20.535Z,21.95
2022-11-28T01:16:22.652Z,20.17
2022-11-28T01:18:24.462Z,18.77
2022-11-28T01:20:26.172Z,19.40
2022-11-28T01:22:28.022Z,18.92
2022-11-28T01:24:29.709Z,19.80
2022-11-28T01:26:32.007Z,17.63
2022-11-28T01:28:34.331Z,20.25
2022-11-28T01:30:36.141Z,18.17
2022-11-28T01:32:37.947Z,18.08
2022-11-28T01:34:39.900Z,19.23
2022-11-28T01:36:41.870Z,18.92
2022-11-28T01:38:44.131Z,16.90
2022-11-28T01:40:46.882Z,19.40
2022-11-28T01:42:48.598Z,20.27
2022-11-28T01:44:50.259Z,18.80
2022-11-28T01:46:52.071Z,18.10
2022-11-28T01:48:55.601Z,18.10
2022-11-28T01:51:00.978Z,21.23
2022-11-28T01:53:08.225Z,19.98
2022-11-28T01:55:12.675Z,19.38
2022-11-28T01:57:18.386Z,17.95
2022-11-28T01:59:23.689Z,17.23
2022-11-28T02:01:26.252Z,18.15
2022-11-28T02:05:33.540Z,18.83
2022-11-28T02:07:37.116Z,20.15
2022-11-28T02:09:38.917Z,18.95
2022-11-28T02:11:52.507Z,18.15
2022-11-28T02:14:20.022Z,19.02
2022-11-28T02:16:33.744Z,20.63
2022-11-28T02:18:59.457Z,19.67
2022-11-28T02:21:26.318Z,18.27
2022-11-28T02:23:55.800Z,20.55
2022-11-28T02:26:34.758Z,19.33
2022-11-28T02:28:47.001Z,20.92
2022-11-28T02:30:48.659Z,21.15
2022-11-28T02:32:59.561Z,20.10
2022-11-28T02:35:29.055Z,20.05
2022-11-28T02:37:54.067Z,21.70
2022-11-28T02:40:16.032Z,22.58
2022-11-28T02:42:28.562Z,19.75
2022-11-28T02:44:30.290Z,18.70
2022-11-28T02:46:37.955Z,22.75
2022-11-28T02:48:53.222Z,22.13
2022-11-28T02:51:16.659Z,18.90
2022-11-28T02:53:22.879Z,21.08
2022-11-28T02:55:24.865Z,20.80
2022-11-28T02:57:42.696Z,20.48
2022-11-28T02:59:48.225Z,20.35
2022-11-28T03:01:49.978Z,20.02
2022-11-28T03:04:02.890Z,19.85
2022-11-28T03:06:10.816Z,20.30
2022-11-28T03:08:12.512Z,20.63
2022-11-28T03:10:51.845Z,20.77
2022-11-28T03:13:00.200Z,21.67
2022-11-28T03:15:08.782Z,24.73
2022-11-28T03:17:29.120Z,20.80
2022-11-28T03:19:42.670Z,21.65
2022-11-28T03:22:00.632Z,21.17
2022-11-28T03:24:24.892Z,20.90
2022-11-28T03:26:38.088Z,21.48
2022-11-28T03:28:58.016Z,22.73
2022-11-28T03:31:02.611Z,21.65
2022-11-28T03:33:05.718Z,20.88
2022-11-28T03:35:15.792Z,21.60
2022-11-28T03:37:24.014Z,23.65
2022-11-28T03:39:30.835Z,19.90
2022-11-28T03:41:45.746Z,24.13
2022-11-28T03:43:52.302Z,21.33
2022-11-28T03:45:58.307Z,22.45
2022-11-28T03:48:08.281Z,21.75
2022-11-28T03:50:17.513Z,22.67
2022-11-28T03:52:27.377Z,23.35
2022-11-28T03:54:46.576Z,22.35
2022-11-28T03:57:15.226Z,22.23
2022-11-28T03:59:22.412Z,22.00
2022-11-28T04:01:36.679Z,22.23
2022-11-28T04:03:38.434Z,23.25
2022-11-28T04:05:55.386Z,22.60
2022-11-28T04:08:18.893Z,23.25
2022-11-28T04:10:44.702Z,21.48
2022-11-28T04:12:56.980Z,25.17
2022-11-28T04:15:08.434Z,23.20
2022-11-28T04:17:19.683Z,24.17
2022-11-28T04:19:31.049Z,23.77
2022-11-28T04:21:43.635Z,22.50
2022-11-28T04:23:48.005Z,24.70
2022-11-28T04:25:58.129Z,22.90
2022-11-28T04:28:07.376Z,26.30
2022-11-28T04:30:11.144Z,22.92
2022-11-28T04:32:15.808Z,22.80
2022-11-28T04:34:20.378Z,23.15
2022-11-28T04:36:24.587Z,22.75
2022-11-28T04:38:29.715Z,25.80
2022-11-28T04:40:37.144Z,24.67
2022-11-28T04:42:53.339Z,22.58
2022-11-28T04:45:11.027Z,24.83
2022-11-28T04:47:12.960Z,24.42
2022-11-28T04:49:15.090Z,24.63
2022-11-28T04:51:21.412Z,24.52
2022-11-28T04:54:04.652Z,20.80
2022-11-28T04:56:18.675Z,22.58
2022-11-28T04:58:31.397Z,22.30
2022-11-28T05:00:36.459Z,23.70
2022-11-28T05:02:40.327Z,21.50
2022-11-28T05:04:44.475Z,25.88
2022-11-28T05:06:47.954Z,23.63
2022-11-28T05:08:49.842Z,22.48
2022-11-28T05:10:51.541Z,24.90
2022-11-28T05:12:53.347Z,25.17
2022-11-28T05:14:55.093Z,22.90
2022-11-28T05:16:56.794Z,21.52
2022-11-28T05:18:58.500Z,22.05
2022-11-28T05:21:01.469Z,20.80
2022-11-28T05:23:03.250Z,23.75
2022-11-28T05:25:05.938Z,22.52
2022-11-28T05:27:07.899Z,22.42
2022-11-28T05:29:09.698Z,20.30
2022-11-28T05:31:12.344Z,20.55
2022-11-28T05:35:15.900Z,22.33
2022-11-28T05:37:17.735Z,22.63
2022-11-28T05:39:19.491Z,24.13
2022-11-28T05:41:26.422Z,23.00
2022-11-28T05:43:28.558Z,22.75
2022-11-28T05:45:30.795Z,24.10
2022-11-28T05:47:33.465Z,24.23
2022-11-28T05:49:35.465Z,23.77
2022-11-28T05:51:37.216Z,24.52
2022-11-28T05:53:38.997Z,24.03
2022-11-28T05:55:41.257Z,23.38
2022-11-28T05:57:42.965Z,23.75
2022-11-28T05:59:45.182Z,21.97
2022-11-28T06:01:47.121Z,23.95
2022-11-28T06:03:48.968Z,21.30
2022-11-28T06:05:50.766Z,23.85
2022-11-28T06:07:52.642Z,21.85
2022-11-28T06:09:54.457Z,21.42
2022-11-28T06:11:56.169Z,22.13
2022-11-28T06:13:58.106Z,19.40
2022-11-28T06:15:59.856Z,19.75
2022-11-28T06:18:01.558Z,20.77
2022-11-28T06:20:04.931Z,21.58
2022-11-28T06:22:06.758Z,20.15
2022-11-28T06:24:10.710Z,22.23
2022-11-28T06:26:16.055Z,20.75
2022-11-28T06:28:17.794Z,20.83
2022-11-28T06:30:19.575Z,22.15
2022-11-28T06:32:22.283Z,19.88
2022-11-28T06:34:24.447Z,20.83
2022-11-28T06:36:26.875Z,21.40
2022-11-28T06:38:29.125Z,21.92
2022-11-28T06:40:31.006Z,18.10
2022-11-28T06:42:34.432Z,20.92
2022-11-28T06:44:36.198Z,20.65
2022-11-28T06:46:38.084Z,17.23
2022-11-28T06:48:39.855Z,22.85
2022-11-28T06:50:41.760Z,18.63
2022-11-28T06:52:43.761Z,22.48
2022-11-28T06:54:45.574Z,22.92
2022-11-28T06:56:47.338Z,22.85
2022-11-28T06:58:55.952Z,20.20
2022-11-28T07:00:57.908Z,23.27
2022-11-28T07:02:59.700Z,23.05
2022-11-28T07:05:01.390Z,22.20
2022-11-28T07:07:03.625Z,23.93
2022-11-28T07:09:05.360Z,22.90
2022-11-28T07:11:11.399Z,23.43
2022-11-28T07:13:13.165Z,19.88
2022-11-28T07:15:15.039Z,23.38
2022-11-28T07:17:17.205Z,25.70
2022-11-28T07:19:23.004Z,22.92
2022-11-28T07:21:25.898Z,22.48
2022-11-28T07:23:27.698Z,20.30
2022-11-28T07:25:29.397Z,19.77
2022-11-28T07:27:31.144Z,20.73
2022-11-28T07:29:36.573Z,25.27
2022-11-28T07:31:38.301Z,21.05
2022-11-28T07:33:41.753Z,18.67
2022-11-28T07:35:43.503Z,24.00
2022-11-28T07:37:45.328Z,19.97
2022-11-28T07:39:47.537Z,20.52
2022-11-28T07:41:49.706Z,21.98
2022-11-28T07:43:55.020Z,20.45
2022-11-28T07:46:01.099Z,21.42
2022-11-28T07:48:03.435Z,21.90
2022-11-28T07:50:06.003Z,19.48
2022-11-28T07:54:09.815Z,20.77
2022-11-28T07:56:15.274Z,20.67
2022-11-28T07:58:17.012Z,20.95
2022-11-28T08:00:19.416Z,20.40
2022-11-28T08:02:21.174Z,23.30
2022-11-28T08:04:23.154Z,21.00
2022-11-28T08:06:28.874Z,21.95
2022-11-28T08:08:30.858Z,20.48
2022-11-28T08:10:32.569Z,21.00
2022-11-28T08:12:34.317Z,21.40
2022-11-28T08:14:36.070Z,19.65
2022-11-28T08:16:41.188Z,20.33
2022-11-28T08:18:43.464Z,18.17
2022-11-28T08:20:45.175Z,17.30
2022-11-28T08:22:47.319Z,19.37
2022-11-28T08:24:49.081Z,19.15
2022-11-28T08:26:50.789Z,20.83
2022-11-28T08:28:54.174Z,19.93
2022-11-28T08:30:56.277Z,21.95
2022-11-28T08:32:58.395Z,24.00
2022-11-28T08:35:00.187Z,23.50
2022-11-28T08:37:02.254Z,22.27
2022-11-28T08:41:26.963Z,20.42
2022-11-28T08:43:28.706Z,19.83
2022-11-28T08:45:30.449Z,20.45
2022-11-28T08:47:32.404Z,19.03
2022-11-28T08:49:37.139Z,19.83
2022-11-28T08:51:38.949Z,18.35
2022-11-28T08:53:43.986Z,20.75
2022-11-28T08:55:48.129Z,18.05
2022-11-28T08:57:49.863Z,18.15
2022-11-28T08:59:51.636Z,19.17
2022-11-28T09:01:54.261Z,18.52
2022-11-28T09:03:56.903Z,16.65
2022-11-28T09:08:10.212Z,18.17
2022-11-28T09:10:13.386Z,18.35
2022-11-28T09:12:15.370Z,17.13
2022-11-28T09:14:17.083Z,17.98
2022-11-28T09:16:19.050Z,16.73
2022-11-28T09:18:20.899Z,17.75
2022-11-28T09:20:22.644Z,19.17
2022-11-28T09:22:24.382Z,18.93
2022-11-28T09:24:26.172Z,19.10
2022-11-28T09:26:28.819Z,18.33
2022-11-28T09:30:33.285Z,22.70
2022-11-28T09:32:36.031Z,18.33
2022-11-28T09:34:37.986Z,18.83
2022-11-28T09:36:39.921Z,18.38
2022-11-28T09:38:41.949Z,18.08
2022-11-28T09:40:44.712Z,16.95
2022-11-28T09:42:47.014Z,16.75
2022-11-28T09:44:52.977Z,16.95
2022-11-28T09:46:59.238Z,15.07
2022-11-28T09:49:07.119Z,20.45
2022-11-28T09:51:28.199Z,22.48
2022-11-28T09:53:50.726Z,18.02
2022-11-28T09:56:11.988Z,17.95
2022-11-28T09:58:39.260Z,19.08
2022-11-28T10:01:23.757Z,20.45
2022-11-28T10:03:31.729Z,18.25
2022-11-28T10:06:07.310Z,17.77
2022-11-28T10:08:27.296Z,18.25
2022-11-28T10:10:55.195Z,17.27
2022-11-28T10:12:59.653Z,17.08
2022-11-28T10:15:26.000Z,18.85
2022-11-28T10:17:45.742Z,16.40
2022-11-28T10:20:12.134Z,16.30
2022-11-28T10:22:22.267Z,18.55
2022-11-28T10:24:39.471Z,20.00
2022-11-28T10:26:46.170Z,17.08
2022-11-28T10:28:51.728Z,17.45
2022-11-28T10:31:12.406Z,16.42
2022-11-28T10:33:36.835Z,16.70
2022-11-28T10:36:02.128Z,17.60
2022-11-28T10:38:11.440Z,17.25
2022-11-28T10:40:38.517Z,15.57
2022-11-28T10:42:48.573Z,14.73
2022-11-28T10:45:05.341Z,16.10
2022-11-28T10:47:15.673Z,16.48
2022-11-28T10:49:39.495Z,14.18
2022-11-28T10:51:56.153Z,14.13
2022-11-28T10:54:10.758Z,15.88
2022-11-28T10:56:18.308Z,18.42
2022-11-28T10:58:30.246Z,14.95
2022-11-28T11:00:33.018Z,16.90
2022-11-28T11:02:54.901Z,14.25
2022-11-28T11:04:56.875Z,11.98
2022-11-28T11:07:29.740Z,14.88
2022-11-28T11:09:31.806Z,13.80
2022-11-28T11:11:37.120Z,15.13
2022-11-28T11:14:00.320Z,17.35
2022-11-28T11:18:35.198Z,16.80
2022-11-28T11:20:40.131Z,17.15
2022-11-28T11:22:54.985Z,18.10
2022-11-28T11:25:17.393Z,16.63
2022-11-28T11:27:21.872Z,15.23
2022-11-28T11:29:35.619Z,17.73
2022-11-28T11:31:44.781Z,17.10
2022-11-28T11:33:47.369Z,14.32
2022-11-28T11:35:49.556Z,15.35
2022-11-28T11:37:51.797Z,16.95
2022-11-28T11:39:58.297Z,18.45
2022-11-28T11:42:00.028Z,13.68
2022-11-28T11:44:36.856Z,13.60
2022-11-28T11:46:51.977Z,14.05
2022-11-28T11:48:53.836Z,12.32
2022-11-28T11:50:55.530Z,13.37
2022-11-28T11:53:15.329Z,11.68
2022-11-28T11:55:17.605Z,10.88
2022-11-28T11:57:37.430Z,11.38
2022-11-28T12:00:02.260Z,12.13
2022-11-28T12:02:19.554Z,14.25
2022-11-28T12:04:45.042Z,12.52
2022-11-28T12:06:52.419Z,11.98
2022-11-28T12:09:14.714Z,12.25
2022-11-28T12:11:32.007Z,10.37
2022-11-28T12:13:34.157Z,11.35
2022-11-28T12:16:03.320Z,12.02
2022-11-28T12:18:40.662Z,12.60
2022-11-28T12:20:53.383Z,14.13
2022-11-28T12:23:24.343Z,11.65
2022-11-28T12:25:28.280Z,14.02
2022-11-28T12:27:54.084Z,12.63
2022-11-28T12:30:38.058Z,11.90
2022-11-28T12:33:04.010Z,11.75
2022-11-28T12:35:30.462Z,10.60
2022-11-28T12:40:55.071Z,15.07
2022-11-28T12:43:47.750Z,11.07
2022-11-28T12:46:02.646Z,10.25
2022-11-28T12:48:04.359Z,11.05
2022-11-28T12:50:20.980Z,9.35
2022-11-28T12:52:57.426Z,10.70
2022-11-28T12:55:17.304Z,11.48
2022-11-28T12:57:27.651Z,15.25
2022-11-28T12:59:32.213Z,11.73
2022-11-28T13:01:53.021Z,10.90
2022-11-28T13:04:12.738Z,10.15
2022-11-28T13:06:32.566Z,10.20
2022-11-28T13:08:58.553Z,11.73
2022-11-28T13:11:26.495Z,11.70
2022-11-28T13:13:50.654Z,9.82
2022-11-28T13:16:23.586Z,10.43
2022-11-28T13:18:48.911Z,13.02
2022-11-28T13:21:14.112Z,10.53
2022-11-28T13:23:28.621Z,10.75
2022-11-28T13:25:32.920Z,10.55
2022-11-28T13:27:43.445Z,10.52
2022-11-28T13:30:16.898Z,9.50
2022-11-28T13:32:37.606Z,12.52
2022-11-28T13:34:40.077Z,12.23
2022-11-28T13:39:25.963Z,11.10
2022-11-28T13:42:09.707Z,11.52
2022-11-28T13:44:09.758Z,13.55
2022-11-28T13:46:11.836Z,13.32
2022-11-28T13:51:19.297Z,12.45
2022-11-28T13:53:24.975Z,11.90
2022-11-28T13:55:47.627Z,8.52
2022-11-28T13:57:49.671Z,9.30
2022-11-28T14:00:04.819Z,8.00
2022-11-28T14:02:22.597Z,9.18
2022-11-28T14:04:25.104Z,6.85
2022-11-28T14:06:30.938Z,8.30
2022-11-28T14:08:39.245Z,7.57
2022-11-28T14:10:58.467Z,7.40
2022-11-28T14:13:35.082Z,5.95
2022-11-28T14:15:45.508Z,8.02
2022-11-28T14:18:54.499Z,8.13
2022-11-28T14:23:10.966Z,8.32
2022-11-28T14:25:24.129Z,8.35
2022-11-28T14:27:30.654Z,10.05
2022-11-28T14:29:41.120Z,7.88
2022-11-28T14:32:06.610Z,7.32
2022-11-28T14:34:48.258Z,7.35
2022-11-28T14:37:10.183Z,10.20
2022-11-28T14:39:33.007Z,9.70
2022-11-28T14:42:06.772Z,8.73
2022-11-28T14:44:46.204Z,8.10
2022-11-28T14:47:35.184Z,11.30
2022-11-28T14:49:36.932Z,10.63
2022-11-28T14:51:48.025Z,10.20
2022-11-28T14:53:50.194Z,10.10
2022-11-28T14:55:52.077Z,9.60
2022-11-28T14:58:03.174Z,9.73
2022-11-28T15:00:13.334Z,11.43
2022-11-28T15:02:34.943Z,11.85
2022-11-28T15:04:39.747Z,12.85
2022-11-28T15:06:42.152Z,12.65
2022-11-28T15:09:08.670Z,10.98
2022-11-28T15:11:58.740Z,12.50
2022-11-28T15:14:03.082Z,11.10
2022-11-28T15:16:09.847Z,12.80
2022-11-28T15:18:12.182Z,13.65
2022-11-28T15:20:28.403Z,14.52
2022-11-28T15:22:30.890Z,13.98
2022-11-28T15:24:37.683Z,17.15
2022-11-28T15:26:39.549Z,17.08
2022-11-28T15:28:41.979Z,16.30
2022-11-28T15:30:49.997Z,20.38
2022-11-28T15:32:59.319Z,18.60
2022-11-28T15:35:09.214Z,17.48
2022-11-28T15:37:19.264Z,19.20
2022-11-28T15:39:41.702Z,17.52
2022-11-28T15:41:46.072Z,18.27
2022-11-28T15:43:47.827Z,18.33
2022-11-28T15:46:01.519Z,16.43
2022-11-28T15:48:04.727Z,16.65
2022-11-28T15:50:20.047Z,17.88
2022-11-28T15:52:21.733Z,19.50
2022-11-28T15:54:41.782Z,18.75
2022-11-28T15:56:57.273Z,19.50
2022-11-28T15:58:59.036Z,22.73
2022-11-28T16:01:19.767Z,19.63
2022-11-28T16:03:26.210Z,19.67
2022-11-28T16:05:28.190Z,18.98
2022-11-28T16:07:30.176Z,19.58
2022-11-28T16:09:35.299Z,19.13
2022-11-28T16:11:37.079Z,19.08
2022-11-28T16:13:40.012Z,18.67
2022-11-28T16:15:49.934Z,21.63
2022-11-28T16:17:55.603Z,19.58
2022-11-28T16:19:58.124Z,20.67
2022-11-28T16:22:09.863Z,19.08
2022-11-28T16:24:48.249Z,18.33
2022-11-28T16:27:33.331Z,19.33
2022-11-28T16:29:36.531Z,20.27
2022-11-28T16:31:38.612Z,18.52
2022-11-28T16:33:44.911Z,19.58
2022-11-28T16:35:46.637Z,19.42
2022-11-28T16:37:48.418Z,19.00
2022-11-28T16:40:14.519Z,16.67
2022-11-28T16:42:17.561Z,19.05
2022-11-28T16:44:23.898Z,19.10
2022-11-28T16:46:30.270Z,16.70
2022-11-28T16:48:38.016Z,18.50
2022-11-28T16:51:10.111Z,21.02
2022-11-28T16:53:52.134Z,21.30
2022-11-28T16:55:53.843Z,21.13
2022-11-28T16:58:07.122Z,23.92
2022-11-28T17:00:09.501Z,18.92
2022-11-28T17:02:38.575Z,18.23
2022-11-28T17:04:40.542Z,17.20
2022-11-28T17:06:42.549Z,21.60
2022-11-28T17:08:44.542Z,22.88
2022-11-28T17:10:46.300Z,21.83
2022-11-28T17:12:48.092Z,24.77
2022-11-28T17:14:50.028Z,25.93
2022-11-28T17:16:51.935Z,29.33
2022-11-28T17:18:54.301Z,29.58
2022-11-28T17:20:56.000Z,27.45
2022-11-28T17:22:59.130Z,25.40
2022-11-28T17:25:01.763Z,25.58
2022-11-28T17:29:05.225Z,20.17
2022-11-28T17:31:07.474Z,15.60
2022-11-28T17:33:15.978Z,16.73
2022-11-28T17:35:22.627Z,14.10
2022-11-28T17:37:24.365Z,13.70
2022-11-28T17:39:27.441Z,16.13
2022-11-28T17:41:29.154Z,12.77
2022-11-28T17:43:35.972Z,17.80
2022-11-28T17:45:40.550Z,13.98
2022-11-28T17:47:42.348Z,16.30
2022-11-28T17:49:46.405Z,15.23
2022-11-28T17:51:49.070Z,15.95
2022-11-28T17:53:50.939Z,15.20
2022-11-28T17:55:59.127Z,18.60
2022-11-28T17:58:00.864Z,17.83
2022-11-28T18:00:05.172Z,16.20
2022-11-28T18:02:07.448Z,17.27
2022-11-28T18:04:09.253Z,16.73
2022-11-28T18:06:18.023Z,16.90
2022-11-28T18:08:22.282Z,26.10
2022-11-28T18:10:24.291Z,20.15
2022-11-28T18:12:26.010Z,18.83
2022-11-28T18:14:27.707Z,18.83
2022-11-28T18:16:30.809Z,14.88
2022-11-28T18:18:33.155Z,15.63
2022-11-28T18:20:36.798Z,13.75
2022-11-28T18:22:38.656Z,16.48
2022-11-28T18:24:40.370Z,13.57
2022-11-28T18:26:42.117Z,12.40
2022-11-28T18:28:43.901Z,14.63
2022-11-28T18:30:47.157Z,14.43
2022-11-28T18:32:48.924Z,12.18
2022-11-28T18:34:50.693Z,24.53
2022-11-28T18:36:58.509Z,18.60
2022-11-28T18:39:03.668Z,19.27
2022-11-28T18:41:07.008Z,20.30
2022-11-28T18:43:08.942Z,21.35
2022-11-28T18:45:11.755Z,18.88
2022-11-28T18:47:13.508Z,18.73
2022-11-28T18:49:16.580Z,21.07
2022-11-28T18:51:21.151Z,17.98
2022-11-28T18:53:22.900Z,15.40
2022-11-28T18:55:24.731Z,18.70
2022-11-28T18:57:31.101Z,17.27
2022-11-28T18:59:32.837Z,23.40
2022-11-28T19:01:35.471Z,22.20
2022-11-28T19:05:42.293Z,23.95
2022-11-28T19:07:44.040Z,24.88
2022-11-28T19:09:46.534Z,26.93
2022-11-28T19:13:53.606Z,32.15
2022-11-28T19:15:55.398Z,31.25
2022-11-28T19:17:57.102Z,22.83
2022-11-28T19:19:58.846Z,20.77
2022-11-28T19:22:00.627Z,22.05
2022-11-28T19:24:03.188Z,21.80
2022-11-28T19:26:08.315Z,14.15
2022-11-28T19:28:10.115Z,14.82
2022-11-28T19:30:13.280Z,12.53
2022-11-28T19:32:16.919Z,15.13
2022-11-28T19:34:19.271Z,13.65
2022-11-28T19:36:21.156Z,15.13
2022-11-28T19:38:22.870Z,17.05
2022-11-28T19:40:24.672Z,14.50
2022-11-28T19:42:26.443Z,14.30
2022-11-28T19:44:29.391Z,16.20
2022-11-28T19:46:35.405Z,14.93
2022-11-28T19:48:39.569Z,18.30
2022-11-28T19:50:49.001Z,17.85
2022-11-28T19:52:50.777Z,19.20
2022-11-28T19:54:52.658Z,19.40
2022-11-28T19:56:54.485Z,18.98
2022-11-28T19:58:56.171Z,16.30
2022-11-28T20:01:15.855Z,15.97
2022-11-28T20:03:18.330Z,15.80
2022-11-28T20:05:20.031Z,18.13
2022-11-28T20:07:21.826Z,18.50
2022-11-28T20:09:23.601Z,17.13
2022-11-28T20:11:31.698Z,17.37
2022-11-28T20:13:33.774Z,15.90
2022-11-28T20:15:38.594Z,25.48
2022-11-28T20:17:40.345Z,20.67
2022-11-28T20:19:42.371Z,20.00
2022-11-28T20:21:44.357Z,16.10
2022-11-28T20:23:51.500Z,19.40
2022-11-28T20:25:53.566Z,17.35
2022-11-28T20:27:55.360Z,18.55
2022-11-28T20:29:57.259Z,18.40
2022-11-28T20:31:59.100Z,19.20
2022-11-28T20:34:01.533Z,19.58
2022-11-28T20:36:08.045Z,23.35
2022-11-28T20:38:09.773Z,17.73
2022-11-28T20:40:12.009Z,17.98
2022-11-28T20:42:13.735Z,19.02
2022-11-28T20:44:15.553Z,18.52
2022-11-28T20:46:22.599Z,18.70
2022-11-28T20:48:24.398Z,22.92
2022-11-28T20:50:26.081Z,20.57
2022-11-28T20:52:27.823Z,22.27
2022-11-28T20:54:29.646Z,24.97
2022-11-28T20:56:46.287Z,23.27
2022-11-28T20:58:58.272Z,25.02
2022-11-28T21:01:00.194Z,22.15
2022-11-28T21:03:01.924Z,22.70
2022-11-28T21:05:03.735Z,22.83
2022-11-28T21:07:05.431Z,23.53
2022-11-28T21:09:07.697Z,23.73
2022-11-28T21:11:25.587Z,21.95
2022-11-28T21:13:35.534Z,23.67
2022-11-28T21:15:42.422Z,24.65
2022-11-28T21:17:44.660Z,21.77
2022-11-28T21:19:46.580Z,22.48
2022-11-28T21:21:49.446Z,22.85
2022-11-28T21:23:51.254Z,25.73
2022-11-28T21:25:53.111Z,26.00
2022-11-28T21:27:54.871Z,22.15
2022-11-28T21:29:56.687Z,23.93
2022-11-28T21:31:58.474Z,21.37
2022-11-28T21:34:00.731Z,20.97
2022-11-28T21:36:03.768Z,22.00
2022-11-28T21:38:06.890Z,23.25
2022-11-28T21:40:09.231Z,23.58
2022-11-28T21:42:12.295Z,22.95
2022-11-28T21:44:16.839Z,24.85
2022-11-28T21:46:18.637Z,25.30
2022-11-28T21:48:20.353Z,22.73
2022-11-28T21:50:22.157Z,25.93
2022-11-28T21:52:24.626Z,27.67
2022-11-28T21:54:26.333Z,25.63
2022-11-28T21:56:28.237Z,24.95
2022-11-28T21:58:30.748Z,26.65
2022-11-28T22:00:52.744Z,24.65
2022-11-28T22:02:58.193Z,23.08
2022-11-28T22:05:05.236Z,26.52
2022-11-28T22:07:07.964Z,22.70
2022-11-28T22:11:13.284Z,23.33
2022-11-28T22:13:15.169Z,21.58
2022-11-28T22:15:17.256Z,20.73
2022-11-28T22:17:18.997Z,21.58
2022-11-28T22:19:20.703Z,21.77
2022-11-28T22:21:50.671Z,20.53
2022-11-28T22:23:44.675Z,20.77
2022-11-28T22:25:55.184Z,21.95
2022-11-28T22:27:56.947Z,23.27
2022-11-28T22:29:58.672Z,21.00
2022-11-28T22:32:00.474Z,20.63
2022-11-28T22:34:02.209Z,21.77
2022-11-28T22:36:05.158Z,22.20
2022-11-28T22:38:06.877Z,24.05
2022-11-28T22:40:09.068Z,20.70
2022-11-28T22:42:10.822Z,22.77
2022-11-28T22:44:12.609Z,18.53
2022-11-28T22:46:15.634Z,19.60
2022-11-28T22:48:17.417Z,18.80
2022-11-28T22:50:19.291Z,19.63
2022-11-28T22:52:21.015Z,20.88
2022-11-28T22:54:22.751Z,22.53
2022-11-28T22:56:25.099Z,25.33
2022-11-28T22:58:26.834Z,22.83
2022-11-28T23:00:28.524Z,21.40
2022-11-28T23:02:30.376Z,22.83
2022-11-28T23:04:32.233Z,23.30
2022-11-28T23:06:34.706Z,26.17
2022-11-28T23:08:36.845Z,24.55
2022-11-28T23:10:38.614Z,23.60
2022-11-28T23:12:41.944Z,22.37
2022-11-28T23:14:43.985Z,19.92
2022-11-28T23:16:46.029Z,23.38
2022-11-28T23:18:49.347Z,21.13
2022-11-28T23:20:51.076Z,18.38
2022-11-28T23:22:52.875Z,17.67
2022-11-28T23:24:54.577Z,17.13
2022-11-28T23:26:56.294Z,20.38
2022-11-28T23:29:03.545Z,16.33
2022-11-28T23:31:12.466Z,19.65
2022-11-28T23:33:14.190Z,19.15
2022-11-28T23:35:15.980Z,18.02
2022-11-28T23:37:17.722Z,19.07
2022-11-28T23:39:21.986Z,19.13
2022-11-28T23:41:24.922Z,20.20
2022-11-28T23:43:26.622Z,19.27
2022-11-28T23:45:28.383Z,19.42
2022-11-28T23:47:30.125Z,19.37
2022-11-28T23:49:31.820Z,18.27
2022-11-28T23:51:33.819Z,20.15
2022-11-28T23:53:36.497Z,17.85
2022-11-28T23:57:39.776Z,20.38
2022-11-28T23:59:41.495Z,21.45
